Time;durP1;ratioP1;P1;durP2;ratioP2;P2;SDS_P1;SDS_P2;PMS_P1;PMS_P2;Temp;Humidity;BMP_temperature;BMP_pressure;BME280_temperature;BME280_humidity;BME280_pressure;Samples;Min_cycle;Max_cycle;Signal;HPM_P1;HPM_P2
2022/09/10 00:00:45;;;;;;;;;;;;;;;14.79;100.00;100905.56;5113663;28;20014;-35
2022/09/10 00:03:10;;;;;;;;;;;;;;;14.85;100.00;100915.41;5114200;28;20338;-35
2022/09/10 00:05:39;;;;;;;;;;;;;;;14.85;100.00;100916.22;5113285;28;19954;-35
2022/09/10 00:08:05;;;;;;;;;;;;;;;14.84;100.00;100919.22;5114325;28;19926;-35
2022/09/10 00:10:36;;;;;;;;;;;;;;;14.85;100.00;100918.94;5114151;28;19938;-35
2022/09/10 00:13:01;;;;;;;;;;;;;;;14.83;100.00;100907.47;5114231;28;19911;-33
2022/09/10 00:15:26;;;;;;;;;;;;;;;14.85;100.00;100901.78;5113723;28;19919;-35
2022/09/10 00:17:51;;;;;;;;;;;;;;;14.82;100.00;100902.28;5113801;28;19912;-35
2022/09/10 00:20:16;;;;;;;;;;;;;;;14.82;100.00;100905.00;5115548;28;19911;-35
2022/09/10 00:22:42;;;;;;;;;;;;;;;14.80;100.00;100899.84;5118028;28;19959;-35
2022/09/10 00:25:07;;;;;;;;;;;;;;;14.80;100.00;100899.03;5117483;28;19957;-36
2022/09/10 00:27:34;;;;;;;;;;;;;;;14.80;100.00;100899.84;5117848;28;20004;-36
2022/09/10 00:30:00;;;;;;;;;;;;;;;14.81;100.00;100900.66;5117165;28;19912;-36
2022/09/10 00:32:26;;;;;;;;;;;;;;;14.80;100.00;100901.75;5115622;28;20006;-35
2022/09/10 00:34:53;;;;;;;;;;;;;;;14.82;100.00;100905.00;5117295;28;19926;-36
2022/09/10 00:37:18;;;;;;;;;;;;;;;14.84;100.00;100902.88;5117520;28;19933;-35
2022/09/10 00:39:43;;;;;;;;;;;;;;;14.86;100.00;100911.59;5117388;28;20280;-34
2022/09/10 00:42:11;;;;;;;;;;;;;;;14.86;100.00;100903.44;5117679;28;20016;-35
2022/09/10 00:44:39;;;;;;;;;;;;;;;14.85;100.00;100904.50;5116684;28;19950;-35
2022/09/10 00:47:07;;;;;;;;;;;;;;;14.85;100.00;100899.88;5116971;28;20288;-35
2022/09/10 00:49:37;;;;;;;;;;;;;;;14.85;100.00;100893.63;5116676;28;20398;-34
2022/09/10 00:52:03;;;;;;;;;;;;;;;14.84;100.00;100909.13;5117047;28;19911;-35
2022/09/10 00:54:30;;;;;;;;;;;;;;;14.83;100.00;100901.22;5116570;28;19980;-35
2022/09/10 00:56:58;;;;;;;;;;;;;;;14.84;100.00;100911.03;5117414;27;19917;-36
2022/09/10 00:59:25;;;;;;;;;;;;;;;14.82;100.00;100905.84;5116515;28;19919;-36
2022/09/10 01:01:51;;;;;;;;;;;;;;;14.83;100.00;100912.91;5117394;28;19936;-35
2022/09/10 01:04:16;;;;;;;;;;;;;;;14.82;100.00;100910.47;5116677;28;19912;-36
2022/09/10 01:06:44;;;;;;;;;;;;;;;14.82;100.00;100910.47;5116757;28;20392;-35
2022/09/10 01:09:10;;;;;;;;;;;;;;;14.83;100.00;100906.66;5116898;28;19922;-36
2022/09/10 01:11:44;;;;;;;;;;;;;;;14.85;100.00;100912.69;5117085;27;19934;-35
2022/09/10 01:14:28;;;;;;;;;;;;;;;14.86;100.00;100911.59;5116238;28;19947;-33
2022/09/10 01:17:17;;;;;;;;;;;;;;;14.86;100.00;100911.59;5116721;28;19994;-33
2022/09/10 01:19:45;;;;;;;;;;;;;;;14.86;100.00;100917.84;5116430;28;19911;-34
2022/09/10 01:22:13;;;;;;;;;;;;;;;14.88;100.00;100914.88;5116994;28;20300;-33
2022/09/10 01:24:53;;;;;;;;;;;;;;;14.89;100.00;100917.34;5116287;28;20000;-34
2022/09/10 01:27:24;;;;;;;;;;;;;;;14.90;100.00;100920.91;5116047;28;19911;-34
2022/09/10 01:29:54;;;;;;;;;;;;;;;14.88;100.00;100914.88;5116917;28;20001;-34
2022/09/10 01:32:31;;;;;;;;;;;;;;;14.89;100.00;100917.34;5116212;28;19912;-34
2022/09/10 01:35:09;;;;;;;;;;;;;;;14.88;100.00;100915.72;5116662;28;19919;-34
2022/09/10 01:37:36;;;;;;;;;;;;;;;14.89;100.00;100921.97;5116434;27;19915;-35
2022/09/10 01:40:03;;;;;;;;;;;;;;;14.90;100.00;100918.19;5116390;28;19922;-34
2022/09/10 01:42:28;;;;;;;;;;;;;;;14.89;100.00;100921.97;5116222;28;19912;-35
2022/09/10 01:44:56;;;;;;;;;;;;;;;14.86;100.00;100919.75;5116304;28;19992;-35
2022/09/10 01:47:31;;;;;;;;;;;;;;;14.85;100.00;100920.84;5116177;28;19957;-35
2022/09/10 01:50:23;;;;;;;;;;;;;;;14.85;100.00;100927.13;5116133;28;19980;-35
2022/09/10 01:53:03;;;;;;;;;;;;;;;14.83;100.00;100921.09;5032819;28;19951;-35
2022/09/10 01:55:29;;;;;;;;;;;;;;;14.82;100.00;100918.63;5032760;28;20438;-35
2022/09/10 01:58:03;;;;;;;;;;;;;;;14.83;100.00;100923.00;5033495;28;19917;-35
2022/09/10 02:00:32;;;;;;;;;;;;;;;14.84;100.00;100917.31;5033198;28;19917;-35
2022/09/10 02:03:00;;;;;;;;;;;;;;;14.80;100.00;100910.72;5033414;28;20452;-35
2022/09/10 02:05:27;;;;;;;;;;;;;;;14.81;100.00;100904.19;5032923;28;19923;-35
2022/09/10 02:07:56;;;;;;;;;;;;;;;14.82;100.00;100902.28;5032452;28;19917;-35
2022/09/10 02:10:22;;;;;;;;;;;;;;;14.79;100.00;100911.00;5033076;28;19913;-35
2022/09/10 02:12:47;;;;;;;;;;;;;;;14.79;100.00;100900.94;5032836;28;20023;-34
2022/09/10 02:15:13;;;;;;;;;;;;;;;14.82;100.00;100910.47;5033020;28;20012;-35
2022/09/10 02:17:39;;;;;;;;;;;;;;;14.84;100.00;100905.59;5032703;28;20331;-35
2022/09/10 02:20:05;;;;;;;;;;;;;;;14.85;100.00;100905.34;5032282;28;20389;-35
2022/09/10 02:22:32;;;;;;;;;;;;;;;14.86;100.00;100901.53;5033005;28;19913;-35
2022/09/10 02:24:57;;;;;;;;;;;;;;;14.86;100.00;100901.53;5032240;28;19913;-35
2022/09/10 02:27:22;;;;;;;;;;;;;;;14.86;100.00;100897.97;5032548;28;19928;-35
2022/09/10 02:29:48;;;;;;;;;;;;;;;14.86;100.00;100893.34;5081406;28;19919;-35
2022/09/10 02:32:13;;;;;;;;;;;;;;;14.85;100.00;100891.72;5114949;28;19911;-35
2022/09/10 02:34:39;;;;;;;;;;;;;;;14.86;100.00;100893.34;5115261;28;19916;-35
2022/09/10 02:37:04;;;;;;;;;;;;;;;14.85;100.00;100889.00;5115446;28;19915;-35
2022/09/10 02:39:29;;;;;;;;;;;;;;;14.85;100.00;100882.72;5115089;28;19918;-36
2022/09/10 02:41:56;;;;;;;;;;;;;;;14.87;100.00;100891.44;5114616;28;19969;-35
2022/09/10 02:44:21;;;;;;;;;;;;;;;14.88;100.00;100888.50;5114204;28;19919;-35
2022/09/10 02:46:47;;;;;;;;;;;;;;;14.90;100.00;100893.66;5114711;28;20367;-34
2022/09/10 02:49:12;;;;;;;;;;;;;;;14.91;100.00;100896.13;5113350;28;20342;-34
2022/09/10 02:51:37;;;;;;;;;;;;;;;14.89;100.00;100884.69;5114701;28;19911;-35
2022/09/10 02:54:03;;;;;;;;;;;;;;;14.89;100.00;100884.69;5113632;28;20356;-35
2022/09/10 02:56:29;;;;;;;;;;;;;;;14.89;100.00;100889.31;5114582;27;20420;-35
2022/09/10 02:58:54;;;;;;;;;;;;;;;14.89;100.00;100883.88;5114557;28;19916;-35
2022/09/10 03:01:21;;;;;;;;;;;;;;;14.89;100.00;100887.41;5114801;28;19958;-34
2022/09/10 03:03:50;;;;;;;;;;;;;;;14.90;100.00;100893.66;5114401;28;20303;-35
2022/09/10 03:06:15;;;;;;;;;;;;;;;14.91;100.00;100890.69;5114781;28;19912;-35
2022/09/10 03:08:40;;;;;;;;;;;;;;;14.93;100.00;100884.97;5114607;28;20404;-35
2022/09/10 03:11:06;;;;;;;;;;;;;;;14.95;100.00;100888.28;5114246;28;20273;-34
2022/09/10 03:13:32;;;;;;;;;;;;;;;14.97;100.00;100890.72;5114282;28;20366;-35
2022/09/10 03:15:57;;;;;;;;;;;;;;;14.98;100.00;100886.91;5114236;28;20036;-35
2022/09/10 03:18:23;;;;;;;;;;;;;;;14.99;100.00;100889.41;5113024;28;19911;-35
2022/09/10 03:20:48;;;;;;;;;;;;;;;15.00;100.00;100899.19;5114210;28;19912;-35
2022/09/10 03:23:14;;;;;;;;;;;;;;;15.01;100.00;100889.13;5114484;28;20002;-35
2022/09/10 03:25:39;;;;;;;;;;;;;;;15.01;100.00;100889.94;5114594;28;19912;-35
2022/09/10 03:28:04;;;;;;;;;;;;;;;15.00;100.00;100893.75;5114865;28;19984;-35
2022/09/10 03:30:30;;;;;;;;;;;;;;;15.01;100.00;100891.84;5113912;28;19976;-35
2022/09/10 03:32:56;;;;;;;;;;;;;;;15.00;100.00;100890.22;5114324;28;19918;-35
2022/09/10 03:35:21;;;;;;;;;;;;;;;15.00;100.00;100890.22;5112675;28;20223;-35
2022/09/10 03:37:47;;;;;;;;;;;;;;;14.96;100.00;100875.47;5113727;28;19920;-35
2022/09/10 03:40:12;;;;;;;;;;;;;;;14.96;100.00;100884.47;5113969;28;19912;-35
2022/09/10 03:42:37;;;;;;;;;;;;;;;14.94;100.00;100883.91;5113931;28;20309;-35
2022/09/10 03:45:03;;;;;;;;;;;;;;;14.96;100.00;100881.75;5114385;28;19912;-35
2022/09/10 03:47:28;;;;;;;;;;;;;;;14.96;100.00;100884.47;5113939;28;19912;-35
2022/09/10 03:49:55;;;;;;;;;;;;;;;14.97;100.00;100882.56;5113885;28;20060;-35
2022/09/10 03:52:21;;;;;;;;;;;;;;;14.97;100.00;100879.84;5113846;28;19926;-35
2022/09/10 03:54:47;;;;;;;;;;;;;;;14.97;100.00;100872.47;5115073;28;20341;-35
2022/09/10 03:57:13;;;;;;;;;;;;;;;14.97;100.00;100886.09;5119101;28;19918;-35
2022/09/10 03:59:40;;;;;;;;;;;;;;;14.99;100.00;100880.41;5118116;28;20002;-35
2022/09/10 04:02:05;;;;;;;;;;;;;;;15.00;100.00;100880.13;5118348;28;19911;-35
2022/09/10 04:04:30;;;;;;;;;;;;;;;15.02;100.00;100879.88;5118293;28;19961;-35
2022/09/10 04:06:56;;;;;;;;;;;;;;;15.01;100.00;100880.97;5118859;28;19918;-35
2022/09/10 04:09:21;;;;;;;;;;;;;;;15.00;100.00;100866.53;5118635;28;20368;-35
2022/09/10 04:11:46;;;;;;;;;;;;;;;14.99;100.00;100873.06;5118057;28;19912;-35
2022/09/10 04:14:11;;;;;;;;;;;;;;;14.97;100.00;100868.94;5118068;28;19911;-35
2022/09/10 04:16:37;;;;;;;;;;;;;;;14.96;100.00;100868.13;5118373;28;19912;-35
2022/09/10 04:19:02;;;;;;;;;;;;;;;14.98;100.00;100873.31;5117628;28;20351;-35
2022/09/10 04:21:27;;;;;;;;;;;;;;;14.92;100.00;100853.38;5117373;28;20287;-35
2022/09/10 04:23:53;;;;;;;;;;;;;;;15.00;100.00;100863.81;5117845;28;19912;-35
2022/09/10 04:26:19;;;;;;;;;;;;;;;15.01;100.00;100865.44;5117556;28;19915;-35
2022/09/10 04:28:44;;;;;;;;;;;;;;;14.99;100.00;100867.63;5117794;28;19951;-35
2022/09/10 04:31:10;;;;;;;;;;;;;;;14.99;100.00;100866.78;5117471;28;19919;-35
2022/09/10 04:33:35;;;;;;;;;;;;;;;14.99;100.00;100864.88;5117405;28;20006;-35
2022/09/10 04:36:01;;;;;;;;;;;;;;;14.98;100.00;100865.94;5117417;28;19926;-35
2022/09/10 04:38:29;;;;;;;;;;;;;;;15.00;100.00;100871.16;5117413;28;19942;-35
2022/09/10 04:40:55;;;;;;;;;;;;;;;14.99;100.00;100866.78;5117164;28;19916;-35
2022/09/10 04:43:21;;;;;;;;;;;;;;;14.99;100.00;100872.25;5118008;28;19912;-35
2022/09/10 04:45:46;;;;;;;;;;;;;;;14.99;100.00;100875.78;5117222;28;19942;-35
2022/09/10 04:48:11;;;;;;;;;;;;;;;15.00;100.00;100874.69;5117417;28;19922;-35
2022/09/10 04:50:38;;;;;;;;;;;;;;;14.99;100.00;100875.78;5116656;28;19912;-35
2022/09/10 04:53:03;;;;;;;;;;;;;;;14.99;100.00;100875.78;5117390;28;19957;-35
2022/09/10 04:55:29;;;;;;;;;;;;;;;14.99;100.00;100874.97;5117408;28;20355;-35
2022/09/10 04:57:55;;;;;;;;;;;;;;;14.99;100.00;100872.25;5117322;28;19974;-35
2022/09/10 05:00:20;;;;;;;;;;;;;;;15.00;100.00;100874.69;5116629;28;19923;-35
2022/09/10 05:02:45;;;;;;;;;;;;;;;15.02;100.00;100877.97;5116865;28;20256;-35
2022/09/10 05:05:10;;;;;;;;;;;;;;;15.03;100.00;100873.34;5116868;28;19915;-35
2022/09/10 05:07:36;;;;;;;;;;;;;;;15.04;100.00;100869.56;5116614;28;19955;-35
2022/09/10 05:10:01;;;;;;;;;;;;;;;15.04;100.00;100870.38;5115356;28;19918;-35
2022/09/10 05:12:26;;;;;;;;;;;;;;;15.05;100.00;100872.00;5116863;28;19961;-35
2022/09/10 05:14:51;;;;;;;;;;;;;;;15.06;100.00;100875.56;5116360;28;19911;-35
2022/09/10 05:17:17;;;;;;;;;;;;;;;15.08;100.00;100876.94;5116980;28;19911;-35
2022/09/10 05:19:42;;;;;;;;;;;;;;;15.08;100.00;100874.22;5115693;28;20315;-35
2022/09/10 05:22:08;;;;;;;;;;;;;;;15.10;100.00;100877.50;5116854;28;20267;-35
2022/09/10 05:24:33;;;;;;;;;;;;;;;15.11;100.00;100873.69;5116285;28;19918;-35
2022/09/10 05:26:59;;;;;;;;;;;;;;;15.11;100.00;100876.41;5116326;28;19912;-35
2022/09/10 05:29:24;;;;;;;;;;;;;;;15.12;100.00;100885.41;5116018;28;19923;-35
2022/09/10 05:31:49;;;;;;;;;;;;;;;15.12;100.00;100882.69;5116421;28;19915;-35
2022/09/10 05:34:14;;;;;;;;;;;;;;;15.13;100.00;100881.63;5116228;28;20286;-35
2022/09/10 05:36:40;;;;;;;;;;;;;;;15.13;100.00;100871.53;5116712;28;19965;-35
2022/09/10 05:39:05;;;;;;;;;;;;;;;15.14;100.00;100870.47;5116123;28;20411;-35
2022/09/10 05:41:30;;;;;;;;;;;;;;;15.15;100.00;100880.25;5116425;28;19915;-35
2022/09/10 05:43:56;;;;;;;;;;;;;;;15.14;100.00;100875.09;5116170;28;19988;-35
2022/09/10 05:46:23;;;;;;;;;;;;;;;15.13;100.00;100879.72;5116526;28;19912;-35
2022/09/10 05:48:48;;;;;;;;;;;;;;;15.13;100.00;100877.00;5116341;28;19912;-35
2022/09/10 05:51:13;;;;;;;;;;;;;;;15.14;100.00;100875.91;5115505;28;19961;-35
2022/09/10 05:53:40;;;;;;;;;;;;;;;15.15;100.00;100874.81;5116097;28;20409;-35
2022/09/10 05:56:06;;;;;;;;;;;;;;;15.16;100.00;100878.34;5115765;28;19912;-35
2022/09/10 05:58:33;;;;;;;;;;;;;;;15.18;100.00;100882.47;5116170;28;19961;-35
2022/09/10 06:00:58;;;;;;;;;;;;;;;15.19;100.00;100883.28;5116043;28;19925;-35
2022/09/10 06:03:23;;;;;;;;;;;;;;;15.20;100.00;100882.22;5115849;28;20415;-35
2022/09/10 06:05:50;;;;;;;;;;;;;;;15.20;100.00;100877.56;5116580;28;19954;-36
2022/09/10 06:08:15;;;;;;;;;;;;;;;15.21;100.00;100883.84;5115826;28;19939;-35
2022/09/10 06:10:41;;;;;;;;;;;;;;;15.22;100.00;100881.94;5115127;28;19912;-35
2022/09/10 06:13:07;;;;;;;;;;;;;;;15.24;100.00;100880.59;5115485;28;19912;-35
2022/09/10 06:15:33;;;;;;;;;;;;;;;15.26;100.00;100880.34;5115566;28;20297;-35
2022/09/10 06:17:58;;;;;;;;;;;;;;;15.27;100.00;100884.69;5114531;28;20002;-35
2022/09/10 06:20:24;;;;;;;;;;;;;;;15.30;100.00;100886.91;5115023;28;19955;-35
2022/09/10 06:22:50;;;;;;;;;;;;;;;15.31;100.00;100885.81;5115322;28;19912;-35
2022/09/10 06:25:16;;;;;;;;;;;;;;;15.31;100.00;100891.28;5114895;28;20355;-35
2022/09/10 06:27:41;;;;;;;;;;;;;;;15.31;100.00;100889.38;5115179;28;19911;-35
2022/09/10 06:30:06;;;;;;;;;;;;;;;15.34;100.00;100897.03;5115356;28;19912;-35
2022/09/10 06:32:32;;;;;;;;;;;;;;;15.34;100.00;100897.03;5115650;28;19912;-35
2022/09/10 06:34:57;;;;;;;;;;;;;;;15.35;100.00;100897.84;5115060;28;19911;-35
2022/09/10 06:37:23;;;;;;;;;;;;;;;15.35;100.00;100887.75;5115905;28;20003;-35
2022/09/10 06:39:48;;;;;;;;;;;;;;;15.35;100.00;100892.41;5115109;28;19979;-35
2022/09/10 06:42:13;;;;;;;;;;;;;;;15.35;100.00;100895.13;5114654;28;19960;-35
2022/09/10 06:44:38;;;;;;;;;;;;;;;15.34;100.00;100897.03;5115202;28;19918;-35
2022/09/10 06:47:04;;;;;;;;;;;;;;;15.36;100.00;100899.47;5115391;28;19916;-35
2022/09/10 06:49:30;;;;;;;;;;;;;;;15.36;100.00;100900.28;5113256;28;19911;-35
2022/09/10 06:51:55;;;;;;;;;;;;;;;15.36;100.00;100896.75;5114680;28;19912;-35
2022/09/10 06:54:20;;;;;;;;;;;;;;;15.35;100.00;100904.13;5114607;28;19911;-35
2022/09/10 06:56:47;;;;;;;;;;;;;;;15.34;100.00;100901.66;5114601;28;19994;-35
2022/09/10 06:59:17;;;;;;;;;;;;;;;15.35;100.00;100901.38;5115262;28;20248;-35
2022/09/10 07:01:42;;;;;;;;;;;;;;;15.37;100.00;100901.97;5115064;28;19912;-35
2022/09/10 07:04:08;;;;;;;;;;;;;;;15.39;100.00;100896.25;5114355;28;20406;-35
2022/09/10 07:06:34;;;;;;;;;;;;;;;15.42;100.00;100901.16;5114643;28;20279;-35
2022/09/10 07:08:59;;;;;;;;;;;;;;;15.44;100.00;100902.53;5114423;28;19920;-35
2022/09/10 07:11:26;;;;;;;;;;;;;;;15.48;100.00;100913.75;5114932;28;20260;-35
2022/09/10 07:13:52;;;;;;;;;;;;;;;15.47;100.00;100909.41;5115101;28;19911;-35
2022/09/10 07:16:22;;;;;;;;;;;;;;;15.44;100.00;100910.72;5113542;28;19911;-35
2022/09/10 07:18:51;;;;;;;;;;;;;;;15.42;100.00;100907.44;5114580;28;19980;-35
2022/09/10 07:21:17;;;;;;;;;;;;;;;15.42;100.00;100909.31;5113868;28;19918;-35
2022/09/10 07:23:43;;;;;;;;;;;;;;;15.42;100.00;100912.91;5114130;28;19919;-35
2022/09/10 07:26:10;;;;;;;;;;;;;;;15.42;100.00;100912.91;5114033;28;20371;-35
2022/09/10 07:28:36;;;;;;;;;;;;;;;15.44;100.00;100918.91;5114397;28;19920;-35
2022/09/10 07:31:13;;;;;;;;;;;;;;;15.43;100.00;100914.53;5113524;28;20282;-35
2022/09/10 07:33:38;;;;;;;;;;;;;;;15.45;100.00;100914.25;5114154;28;19912;-35
2022/09/10 07:36:05;;;;;;;;;;;;;;;15.39;100.00;100910.69;5113117;28;19989;-35
2022/09/10 07:38:30;;;;;;;;;;;;;;;15.46;100.00;100924.06;5113908;28;19912;-35
2022/09/10 07:40:58;;;;;;;;;;;;;;;15.47;100.00;100928.47;5114417;28;19912;-35
2022/09/10 07:43:23;;;;;;;;;;;;;;;15.46;100.00;100922.16;5113921;28;20366;-35
2022/09/10 07:45:48;;;;;;;;;;;;;;;15.48;100.00;100921.94;5113798;28;19926;-35
2022/09/10 07:48:14;;;;;;;;;;;;;;;15.51;100.00;100921.38;5113862;28;19920;-35
2022/09/10 07:50:39;;;;;;;;;;;;;;;15.52;100.00;100925.78;5113640;28;19911;-35
2022/09/10 07:53:05;;;;;;;;;;;;;;;15.54;100.00;100933.69;5113720;28;20008;-35
2022/09/10 07:55:30;;;;;;;;;;;;;;;15.56;100.00;100932.31;5113951;28;20373;-35
2022/09/10 07:57:56;;;;;;;;;;;;;;;15.57;100.00;100930.44;5113716;28;19919;-35
2022/09/10 08:00:21;;;;;;;;;;;;;;;15.59;100.00;100931.00;5113721;28;19911;-35
2022/09/10 08:02:47;;;;;;;;;;;;;;;15.60;100.00;100929.91;5114439;28;19912;-35
2022/09/10 08:05:12;;;;;;;;;;;;;;;15.61;100.00;100937.81;5113725;28;19915;-35
2022/09/10 08:07:37;;;;;;;;;;;;;;;15.64;100.00;100942.78;5113729;28;20008;-35
2022/09/10 08:10:04;;;;;;;;;;;;;;;15.69;100.00;100942.81;5113558;28;19919;-35
2022/09/10 08:12:29;;;;;;;;;;;;;;;15.77;100.00;100946.16;5114240;28;19962;-35
2022/09/10 08:14:56;;;;;;;;;;;;;;;15.82;100.00;100951.63;5113976;28;19911;-35
2022/09/10 08:17:21;;;;;;;;;;;;;;;15.90;100.00;100942.94;5113537;28;19912;-35
2022/09/10 08:19:49;;;;;;;;;;;;;;;15.98;100.00;100958.00;5113978;28;19912;-35
2022/09/10 08:22:14;;;;;;;;;;;;;;;16.07;100.00;100964.59;5113749;28;20363;-35
2022/09/10 08:24:39;;;;;;;;;;;;;;;16.16;100.00;100958.38;5111720;28;19911;-35
2022/09/10 08:27:05;;;;;;;;;;;;;;;16.25;100.00;100961.41;5113447;28;19977;-35
2022/09/10 08:29:30;;;;;;;;;;;;;;;16.30;100.00;100963.31;5113126;28;19919;-35
2022/09/10 08:31:55;;;;;;;;;;;;;;;16.27;100.00;100961.13;5113106;28;19911;-35
2022/09/10 08:34:20;;;;;;;;;;;;;;;16.35;100.00;100979.75;5113379;28;20109;-36
2022/09/10 08:36:45;;;;;;;;;;;;;;;16.38;100.00;100979.19;5113344;28;20408;-35
2022/09/10 08:39:11;;;;;;;;;;;;;;;16.44;100.00;100986.31;5113606;28;19958;-35
2022/09/10 08:41:39;;;;;;;;;;;;;;;16.46;100.00;100984.16;5115522;28;19918;-35
2022/09/10 08:44:11;;;;;;;;;;;;;;;16.47;100.00;100981.16;5117383;28;19919;-36
2022/09/10 08:46:42;;;;;;;;;;;;;;;16.53;100.00;100983.88;5117438;28;20049;-36
2022/09/10 08:49:16;;;;;;;;;;;;;;;16.60;100.00;100987.22;5117860;28;19912;-36
2022/09/10 08:52:04;;;;;;;;;;;;;;;16.68;100.00;100986.69;5117028;28;19912;-35
2022/09/10 08:54:36;;;;;;;;;;;;;;;16.74;100.00;100996.56;5116986;28;19912;-34
2022/09/10 08:57:03;;;;;;;;;;;;;;;16.70;100.00;100985.34;5117310;28;20006;-34
2022/09/10 08:59:33;;;;;;;;;;;;;;;16.66;100.00;100995.13;5116878;28;19912;-35
2022/09/10 09:02:14;;;;;;;;;;;;;;;16.64;100.00;101007.41;5116904;28;19958;-35
2022/09/10 09:04:45;;;;;;;;;;;;;;;16.58;100.00;101003.84;5117105;28;19916;-35
2022/09/10 09:07:13;;;;;;;;;;;;;;;16.51;100.00;101003.28;5117127;28;19911;-35
2022/09/10 09:09:38;;;;;;;;;;;;;;;16.48;100.00;101004.63;5116327;28;20003;-35
2022/09/10 09:12:22;;;;;;;;;;;;;;;16.52;100.00;101004.91;5117085;28;20010;-35
2022/09/10 09:14:53;;;;;;;;;;;;;;;16.58;100.00;101006.56;5116929;28;19912;-35
2022/09/10 09:17:30;;;;;;;;;;;;;;;16.61;100.00;101010.69;5116919;28;19918;-34
2022/09/10 09:20:01;;;;;;;;;;;;;;;16.60;100.00;101009.88;5116504;28;19919;-35
2022/09/10 09:22:33;;;;;;;;;;;;;;;16.62;100.00;101010.41;5117306;28;20006;-35
2022/09/10 09:25:02;;;;;;;;;;;;;;;16.63;100.00;101009.31;5116058;28;19918;-35
2022/09/10 09:27:30;;;;;;;;;;;;;;;16.64;100.00;101010.97;5115464;28;20271;-35
2022/09/10 09:30:03;;;;;;;;;;;;;;;16.69;100.00;101016.47;5115985;28;19918;-35
2022/09/10 09:32:31;;;;;;;;;;;;;;;16.78;100.00;101018.69;5116344;28;19919;-35
2022/09/10 09:35:08;;;;;;;;;;;;;;;16.87;100.00;101023.34;5117320;28;19912;-35
2022/09/10 09:37:35;;;;;;;;;;;;;;;16.95;100.00;101017.38;5114660;28;20356;-35
2022/09/10 09:40:26;;;;;;;;;;;;;;;17.04;100.00;101014.94;5116321;28;20014;-34
2022/09/10 09:42:55;;;;;;;;;;;;;;;17.10;100.00;101013.88;5033338;28;19917;-34
2022/09/10 09:45:21;;;;;;;;;;;;;;;17.17;100.00;101008.13;5033407;28;20393;-34
2022/09/10 09:47:46;;;;;;;;;;;;;;;17.29;100.00;101007.88;5034057;28;19921;-35
2022/09/10 09:50:11;;;;;;;;;;;;;;;17.31;100.00;101005.69;5033127;28;19956;-35
2022/09/10 09:52:39;;;;;;;;;;;;;;;17.31;100.00;101011.97;5033573;28;20362;-35
2022/09/10 09:55:06;;;;;;;;;;;;;;;17.40;100.00;101007.63;5033024;28;19917;-35
2022/09/10 09:57:31;;;;;;;;;;;;;;;17.58;100.00;101010.91;5033318;28;19913;-35
2022/09/10 09:59:56;;;;;;;;;;;;;;;17.87;100.00;101008.47;5032922;28;19967;-35
2022/09/10 10:02:23;;;;;;;;;;;;;;;18.15;100.00;101007.03;5033396;28;19960;-35
2022/09/10 10:05:02;;;;;;;;;;;;;;;18.33;100.00;100995.47;5032998;28;19913;-34
2022/09/10 10:07:31;;;;;;;;;;;;;;;18.36;100.00;100999.59;5033412;28;20314;-35
2022/09/10 10:09:59;;;;;;;;;;;;;;;18.31;100.00;101005.09;5033384;28;19919;-34
2022/09/10 10:12:25;;;;;;;;;;;;;;;18.27;100.00;101018.50;5033176;28;20316;-35
2022/09/10 10:14:50;;;;;;;;;;;;;;;18.23;100.00;101033.84;5032962;28;19913;-35
2022/09/10 10:17:34;;;;;;;;;;;;;;;18.11;100.00;101033.31;5033363;28;19920;-35
2022/09/10 10:20:15;;;;;;;;;;;;;;;18.09;100.00;101030.84;5086873;28;19919;-35
2022/09/10 10:22:41;;;;;;;;;;;;;;;18.09;100.00;101021.81;5116388;28;19934;-35
2022/09/10 10:25:25;;;;;;;;;;;;;;;18.09;100.00;101025.38;5115397;28;19957;-35
2022/09/10 10:27:53;;;;;;;;;;;;;;;18.07;100.00;101013.91;5115636;28;20002;-35
2022/09/10 10:30:20;;;;;;;;;;;;;;;18.00;100.00;101010.59;5115017;28;20367;-35
2022/09/10 10:32:54;;;;;;;;;;;;;;;17.95;100.00;101027.03;5116148;28;19962;-36
2022/09/10 10:35:29;;;;;;;;;;;;;;;17.87;100.00;101036.63;5114916;28;19912;-33
2022/09/10 10:38:12;;;;;;;;;;;;;;;17.79;100.00;101044.56;5115022;28;19915;-33
2022/09/10 10:40:49;;;;;;;;;;;;;;;17.68;100.00;101038.25;5115641;28;19912;-34
2022/09/10 10:43:37;;;;;;;;;;;;;;;17.60;100.00;101045.06;5115239;28;19951;-34
2022/09/10 10:46:14;;;;;;;;;;;;;;;17.54;100.00;101059.84;5115001;28;19939;-34
2022/09/10 10:48:54;;;;;;;;;;;;;;;17.46;100.00;101050.25;5115263;28;19916;-35
2022/09/10 10:51:38;;;;;;;;;;;;;;;17.41;100.00;101060.38;5114834;28;19912;-35
2022/09/10 10:54:09;;;;;;;;;;;;;;;17.33;100.00;101048.06;5114643;28;19963;-35
2022/09/10 10:56:46;;;;;;;;;;;;;;;17.29;100.00;101060.63;5115288;28;20240;-35
2022/09/10 10:59:20;;;;;;;;;;;;;;;17.29;100.00;101062.56;5115080;28;19918;-35
2022/09/10 11:01:49;;;;;;;;;;;;;;;17.27;100.00;101072.91;5114692;27;20377;-34
2022/09/10 11:04:15;;;;;;;;;;;;;;;17.25;100.00;101070.47;5114492;28;19919;-34
2022/09/10 11:06:43;;;;;;;;;;;;;;;17.26;100.00;101063.91;5114867;28;19916;-35
2022/09/10 11:09:31;;;;;;;;;;;;;;;17.23;100.00;101059.81;5114187;28;19916;-35
2022/09/10 11:12:04;;;;;;;;;;;;;;;17.19;100.00;101057.88;5115054;28;19912;-35
2022/09/10 11:14:52;;;;;;;;;;;;;;;17.17;100.00;101057.31;5114538;28;20355;-35
2022/09/10 11:17:21;;;;;;;;;;;;;;;17.16;100.00;101052.94;5114606;28;19911;-35
2022/09/10 11:19:57;;;;;;;;;;;;;;;17.16;100.00;101058.41;5114647;28;20011;-35
2022/09/10 11:22:26;;;;;;;;;;;;;;;17.15;100.00;101063.06;5114453;28;19918;-35
2022/09/10 11:25:01;;;;;;;;;;;;;;;17.17;100.00;101060.88;5112772;28;19912;-34
2022/09/10 11:27:29;;;;;;;;;;;;;;;17.21;100.00;101066.63;5114386;28;20275;-34
2022/09/10 11:30:03;;;;;;;;;;;;;;;17.23;100.00;101065.28;5113940;28;19937;-34
2022/09/10 11:32:29;;;;;;;;;;;;;;;17.29;100.00;101068.84;5113973;28;19966;-35
2022/09/10 11:34:57;;;;;;;;;;;;;;;17.36;100.00;101071.28;5113746;28;19922;-34
2022/09/10 11:37:42;;;;;;;;;;;;;;;17.45;100.00;101081.44;5114127;28;19915;-34
2022/09/10 11:40:12;;;;;;;;;;;;;;;17.64;100.00;101073.53;5114062;28;19919;-35
2022/09/10 11:42:39;;;;;;;;;;;;;;;18.04;100.00;101076.56;5114280;28;20367;-35
2022/09/10 11:45:10;;;;;;;;;;;;;;;18.40;100.00;101067.19;5113659;28;19968;-35
2022/09/10 11:47:39;;;;;;;;;;;;;;;18.58;100.00;101068.50;5114189;28;19923;-35
2022/09/10 11:50:09;;;;;;;;;;;;;;;18.68;100.00;101065.75;5113552;28;20407;-35
2022/09/10 11:52:35;;;;;;;;;;;;;;;18.63;100.00;101057.53;5114335;28;19960;-35
2022/09/10 11:55:02;;;;;;;;;;;;;;;18.57;100.00;101060.56;5113854;28;20018;-35
2022/09/10 11:57:47;;;;;;;;;;;;;;;18.51;100.00;101057.03;5113615;28;19964;-35
2022/09/10 12:00:16;;;;;;;;;;;;;;;18.39;100.00;101068.28;5113998;28;20371;-35
2022/09/10 12:02:44;;;;;;;;;;;;;;;18.31;100.00;101068.84;5114652;28;20010;-35
2022/09/10 12:05:15;;;;;;;;;;;;;;;18.32;100.00;101069.69;5113753;28;20363;-35
2022/09/10 12:07:54;;;;;;;;;;;;;;;18.42;100.00;101075.13;5114202;28;20010;-35
2022/09/10 12:10:31;;;;;;;;;;;;;;;18.75;100.00;101069.03;5113886;28;19911;-35
2022/09/10 12:12:57;;;;;;;;;;;;;;;19.04;100.00;101071.91;5113415;28;19962;-35
2022/09/10 12:15:24;;;;;;;;;;;;;;;19.22;100.00;101066.84;5114413;28;20023;-35
2022/09/10 12:17:55;;;;;;;;;;;;;;;19.36;100.00;101073.34;5118028;28;19915;-35
2022/09/10 12:20:26;;;;;;;;;;;;;;;19.42;100.00;101083.22;5117797;28;19911;-34
2022/09/10 12:22:52;;;;;;;;;;;;;;;19.70;100.00;101084.38;5118402;28;19981;-34
2022/09/10 12:25:17;;;;;;;;;;;;;;;20.06;100.00;101086.84;5118000;28;19919;-34
2022/09/10 12:27:44;;;;;;;;;;;;;;;20.13;96.21;101084.56;5118002;28;19912;-34
2022/09/10 12:30:28;;;;;;;;;;;;;;;20.16;97.73;101095.00;5116639;28;19916;-34
2022/09/10 12:32:54;;;;;;;;;;;;;;;20.21;98.85;101085.91;5116345;28;19911;-35